Time;durP1;ratioP1;P1;durP2;ratioP2;P2;SDS_P1;SDS_P2;PMS_P1;PMS_P2;Temp;Humidity;BMP_temperature;BMP_pressure;BME280_temperature;BME280_humidity;BME280_pressure;Samples;Min_cycle;Max_cycle;Signal;HPM_P1;HPM_P2
2022/04/08 00:01:15;;;;;;;;;;;;;;;22.85;42.65;98420.41;20718721;27;97511;-75
2022/04/08 00:11:16;;;;;;;;;;;;;;;22.81;42.99;98427.03;20709346;27;97191;-75
2022/04/08 00:21:16;;;;;;;;;;;;;;;22.79;42.96;98411.38;20710877;27;97090;-75
2022/04/08 00:31:19;;;;;;;;;;;;;;;22.80;42.78;98425.41;20705154;27;97149;-74
2022/04/08 00:41:20;;;;;;;;;;;;;;;22.79;43.06;98464.16;20712635;27;96888;-73
2022/04/08 00:51:21;;;;;;;;;;;;;;;22.77;43.39;98452.16;20712941;27;97232;-75
2022/04/08 01:01:23;;;;;;;;;;;;;;;22.76;43.14;98472.41;20709748;27;96907;-75
2022/04/08 01:11:24;;;;;;;;;;;;;;;22.74;43.26;98458.59;20704944;27;100839;-75
2022/04/08 01:21:24;;;;;;;;;;;;;;;22.73;43.17;98464.88;20711349;27;101039;-75
2022/04/08 01:31:29;;;;;;;;;;;;;;;22.71;43.27;98482.69;20726320;27;97016;-75
2022/04/08 01:41:31;;;;;;;;;;;;;;;22.73;43.13;98508.88;20719259;27;97794;-75
2022/04/08 01:51:31;;;;;;;;;;;;;;;22.71;43.19;98541.53;20720389;27;101713;-74
2022/04/08 02:01:31;;;;;;;;;;;;;;;22.69;43.15;98547.97;20714274;27;97221;-73
2022/04/08 02:11:35;;;;;;;;;;;;;;;22.68;43.47;98541.09;20721148;27;107927;-73
2022/04/08 02:21:35;;;;;;;;;;;;;;;22.66;43.40;98572.91;20723111;27;100345;-73
2022/04/08 02:31:35;;;;;;;;;;;;;;;22.66;43.72;98567.63;20716098;27;97242;-73
2022/04/08 02:41:36;;;;;;;;;;;;;;;22.64;43.74;98567.00;20721905;27;98137;-73
2022/04/08 02:51:36;;;;;;;;;;;;;;;22.63;43.91;98597.00;20718064;27;96979;-74
2022/04/08 03:01:38;;;;;;;;;;;;;;;22.61;44.00;98638.56;20717669;27;97223;-74
2022/04/08 03:11:38;;;;;;;;;;;;;;;22.61;43.75;98669.41;20717158;27;98004;-74
2022/04/08 03:21:39;;;;;;;;;;;;;;;22.60;43.73;98673.03;20722449;27;97183;-72
2022/04/08 03:31:39;;;;;;;;;;;;;;;22.56;43.46;98709.47;20718447;27;97668;-73
2022/04/08 03:41:40;;;;;;;;;;;;;;;22.57;43.81;98736.66;20711045;27;97695;-73
2022/04/08 03:51:41;;;;;;;;;;;;;;;22.57;43.81;98765.66;20711116;27;97642;-73
2022/04/08 04:01:42;;;;;;;;;;;;;;;22.51;44.02;98797.00;20716708;27;96981;-74
2022/04/08 04:11:42;;;;;;;;;;;;;;;22.52;44.12;98782.84;20716352;27;96918;-74
2022/04/08 04:21:43;;;;;;;;;;;;;;;22.55;44.18;98747.38;20703860;27;96980;-73
2022/04/08 04:31:44;;;;;;;;;;;;;;;22.59;43.95;98767.16;20698512;27;97252;-72
2022/04/08 04:41:44;;;;;;;;;;;;;;;22.64;44.81;98770.13;20693636;27;97335;-75
2022/04/08 04:51:45;;;;;;;;;;;;;;;22.68;44.83;98749.50;20692233;27;101721;-79
2022/04/08 05:01:46;;;;;;;;;;;;;;;22.69;44.51;98772.25;20716876;27;98039;-77
2022/04/08 05:11:47;;;;;;;;;;;;;;;22.65;43.32;98792.84;20705066;27;96994;-78
2022/04/08 05:21:47;;;;;;;;;;;;;;;22.68;43.86;98810.19;20713430;27;101007;-77
2022/04/08 05:31:48;;;;;;;;;;;;;;;22.76;44.09;98822.53;20722949;27;97852;-80
2022/04/08 05:41:48;;;;;;;;;;;;;;;22.80;42.63;98829.13;20709226;27;97519;-80
2022/04/08 05:51:49;;;;;;;;;;;;;;;22.82;42.71;98859.63;20729027;27;97624;-80
2022/04/08 06:01:49;;;;;;;;;;;;;;;22.84;42.85;98868.22;20732202;27;101611;-80
2022/04/08 06:11:50;;;;;;;;;;;;;;;22.87;43.04;98885.53;20740868;27;98353;-80
2022/04/08 06:21:54;;;;;;;;;;;;;;;22.88;43.04;98928.59;20730342;27;97865;-82
2022/04/08 06:31:55;;;;;;;;;;;;;;;22.90;42.89;98948.56;20738921;27;99839;-80
2022/04/08 06:41:55;;;;;;;;;;;;;;;22.90;43.35;98969.66;20729822;27;97090;-83
2022/04/08 06:51:58;;;;;;;;;;;;;;;22.89;43.44;99002.31;20714900;27;97657;-82
2022/04/08 07:01:58;;;;;;;;;;;;;;;22.89;43.21;98998.84;20736406;27;97371;-81
2022/04/08 07:12:00;;;;;;;;;;;;;;;22.88;43.00;99019.16;20749705;27;98070;-81
2022/04/08 07:22:01;;;;;;;;;;;;;;;22.88;43.51;99029.69;20739650;27;97563;-81
2022/04/08 07:32:01;;;;;;;;;;;;;;;22.88;43.57;99045.53;20749840;27;97940;-82
2022/04/08 07:42:03;;;;;;;;;;;;;;;22.88;43.26;99057.91;20753369;27;97165;-81
2022/04/08 07:52:06;;;;;;;;;;;;;;;22.88;42.95;99057.91;20742840;27;97356;-81
2022/04/08 08:02:07;;;;;;;;;;;;;;;22.88;42.90;99076.41;20752863;27;98510;-82
2022/04/08 08:12:07;;;;;;;;;;;;;;;22.89;42.91;99075.38;20733512;27;97033;-81
2022/04/08 08:22:08;;;;;;;;;;;;;;;22.89;42.96;99075.38;20746119;27;97231;-80
2022/04/08 08:32:09;;;;;;;;;;;;;;;22.88;42.82;99103.59;21031485;22;98725;-83
2022/04/08 08:42:09;;;;;;;;;;;;;;;22.89;42.70;99136.94;20636282;27;97970;-82
2022/04/08 08:52:10;;;;;;;;;;;;;;;22.89;42.56;99129.03;20627094;27;98906;-80
2022/04/08 09:02:16;;;;;;;;;;;;;;;22.88;42.76;99137.91;20623017;27;97977;-80
2022/04/08 09:12:16;;;;;;;;;;;;;;;22.90;42.20;99172.91;20627921;27;96939;-80
2022/04/08 09:22:17;;;;;;;;;;;;;;;22.90;43.02;99165.00;20624903;28;97280;-82
2022/04/08 09:32:18;;;;;;;;;;;;;;;22.91;43.03;99153.44;20641925;28;97057;-81
2022/04/08 09:42:18;;;;;;;;;;;;;;;22.94;42.79;99176.88;20617033;28;97591;-81
2022/04/08 09:52:19;;;;;;;;;;;;;;;23.00;42.63;99152.47;20603514;28;97472;-78
2022/04/08 10:02:22;;;;;;;;;;;;;;;23.08;43.61;99127.88;20591851;28;101287;-78
2022/04/08 10:12:29;;;;;;;;;;;;;;;23.14;43.76;99155.47;20609121;28;96859;-78
2022/04/08 10:22:40;;;;;;;;;;;;;;;23.23;44.54;99151.06;20616325;28;97555;-77
2022/04/08 10:32:42;;;;;;;;;;;;;;;23.17;39.86;99157.84;20624621;28;96910;-78
2022/04/08 10:42:45;;;;;;;;;;;;;;;23.05;33.88;99154.63;20619684;28;97200;-79
2022/04/08 10:52:45;;;;;;;;;;;;;;;23.02;33.42;99150.50;20646076;28;97867;-78
2022/04/08 11:02:47;;;;;;;;;;;;;;;22.98;31.28;99159.72;20613325;28;96913;-79
2022/04/08 11:12:49;;;;;;;;;;;;;;;22.93;31.42;99142.72;20613896;27;97394;-78
2022/04/08 11:22:53;;;;;;;;;;;;;;;22.95;31.14;99146.00;20594606;27;98913;-77
2022/04/08 11:32:53;;;;;;;;;;;;;;;22.87;30.25;99149.47;20589175;28;98298;-75
2022/04/08 11:42:56;;;;;;;;;;;;;;;22.83;31.27;99153.41;20580014;28;98183;-74
2022/04/08 11:52:58;;;;;;;;;;;;;;;22.82;32.81;99136.72;20564760;28;97995;-75
2022/04/08 12:02:58;;;;;;;;;;;;;;;22.89;35.47;99136.94;20564930;28;96831;-75
2022/04/08 12:12:59;;;;;;;;;;;;;;;22.95;36.53;99136.28;20570514;28;97046;-75
2022/04/08 12:23:00;;;;;;;;;;;;;;;23.00;37.23;99120.78;20567007;28;97453;-76
2022/04/08 12:33:01;;;;;;;;;;;;;;;23.05;37.69;99098.38;20567355;28;97179;-76
2022/04/08 12:43:01;;;;;;;;;;;;;;;23.06;38.34;99082.38;20572586;28;97054;-75
2022/04/08 12:53:02;;;;;;;;;;;;;;;23.07;38.65;99048.84;20589511;28;98827;-74
2022/04/08 13:03:03;;;;;;;;;;;;;;;23.08;38.95;99055.78;20603412;28;97769;-75
2022/04/08 13:13:03;;;;;;;;;;;;;;;23.09;39.50;99052.97;20572836;28;98415;-75
2022/04/08 13:23:03;;;;;;;;;;;;;;;23.18;39.59;99025.63;20572973;28;98171;-72
2022/04/08 13:33:04;;;;;;;;;;;;;;;23.22;39.75;99009.44;20584092;28;99195;-76
2022/04/08 13:43:05;;;;;;;;;;;;;;;23.29;40.42;98984.88;20512186;28;97526;-76
2022/04/08 13:53:05;;;;;;;;;;;;;;;23.29;40.65;98998.06;20494902;27;98341;-77
2022/04/08 14:03:06;;;;;;;;;;;;;;;23.28;40.80;98977.94;20493825;28;99177;-76
2022/04/08 14:13:07;;;;;;;;;;;;;;;23.31;41.07;98955.63;20492317;28;101536;-76
2022/04/08 14:23:08;;;;;;;;;;;;;;;23.32;41.57;98938.81;20487353;28;97572;-75
2022/04/08 14:33:09;;;;;;;;;;;;;;;23.28;41.56;98903.97;20489330;28;96908;-75
2022/04/08 14:43:09;;;;;;;;;;;;;;;23.29;41.79;98897.72;20495045;28;101828;-76
2022/04/08 14:53:09;;;;;;;;;;;;;;;23.30;41.61;98880.03;20513940;28;100168;-75
2022/04/08 15:03:11;;;;;;;;;;;;;;;23.29;41.82;98868.66;20494048;28;97733;-76
2022/04/08 15:13:11;;;;;;;;;;;;;;;23.28;42.37;98826.59;20517606;28;97446;-75
2022/04/08 15:23:12;;;;;;;;;;;;;;;23.34;43.04;98781.81;20498212;28;100382;-77
2022/04/08 15:33:14;;;;;;;;;;;;;;;23.34;43.33;98784.44;20501329;28;97207;-76
2022/04/08 15:43:14;;;;;;;;;;;;;;;23.34;43.92;98784.44;20500245;28;101003;-74
2022/04/08 15:53:26;;;;;;;;;;;;;;;23.38;43.99;98758.50;20566619;28;98785;-73
2022/04/08 16:03:27;;;;;;;;;;;;;;;23.47;43.46;98770.69;20574790;28;96991;-72
2022/04/08 16:13:27;;;;;;;;;;;;;;;23.56;42.96;98762.69;20589282;28;98723;-72
2022/04/08 16:23:28;;;;;;;;;;;;;;;23.63;43.35;98750.44;20587049;28;97415;-74
2022/04/08 16:33:28;;;;;;;;;;;;;;;23.66;43.45;98716.56;20599858;28;97636;-75
2022/04/08 16:43:29;;;;;;;;;;;;;;;23.70;42.50;98714.41;20650829;28;101205;-74
2022/04/08 16:53:29;;;;;;;;;;;;;;;23.78;43.08;98722.28;20734453;27;100739;-74
2022/04/08 17:03:30;;;;;;;;;;;;;;;23.47;39.30;98723.16;20753323;27;97367;-78
2022/04/08 17:13:31;;;;;;;;;;;;;;;23.62;40.90;98707.34;20765778;27;97042;-76
2022/04/08 17:23:32;;;;;;;;;;;;;;;23.77;41.61;98696.03;20758327;27;97490;-78
2022/04/08 17:33:33;;;;;;;;;;;;;;;23.88;41.69;98690.31;20753478;27;97095;-77
2022/04/08 17:43:36;;;;;;;;;;;;;;;23.95;42.56;98693.13;20732215;27;98129;-76
2022/04/08 17:53:37;;;;;;;;;;;;;;;24.03;44.04;98666.59;20739933;27;98732;-77
2022/04/08 18:03:39;;;;;;;;;;;;;;;24.02;43.94;98667.56;20751597;27;98734;-77
2022/04/08 18:13:39;;;;;;;;;;;;;;;24.09;43.13;98675.63;20742481;27;96991;-78
2022/04/08 18:23:40;;;;;;;;;;;;;;;24.09;43.73;98670.34;20758031;27;97728;-77
2022/04/08 18:33:41;;;;;;;;;;;;;;;24.08;43.39;98666.88;20766536;27;97725;-76
2022/04/08 18:43:42;;;;;;;;;;;;;;;24.07;43.43;98656.47;20743031;27;97207;-76
2022/04/08 18:53:43;;;;;;;;;;;;;;;23.96;43.70;98665.66;20731596;27;97658;-77
2022/04/08 19:03:43;;;;;;;;;;;;;;;23.84;43.06;98646.75;20735777;27;99182;-75
2022/04/08 19:13:44;;;;;;;;;;;;;;;23.70;43.72;98637.75;20753866;27;96987;-74
2022/04/08 19:23:45;;;;;;;;;;;;;;;23.64;43.82;98634.03;20737478;27;97003;-74
2022/04/08 19:33:45;;;;;;;;;;;;;;;23.61;43.80;98628.28;20721199;27;99839;-76
2022/04/08 19:43:48;;;;;;;;;;;;;;;23.53;43.94;98634.44;20752609;27;97120;-75
2022/04/08 19:53:48;;;;;;;;;;;;;;;23.49;44.04;98630.50;20755293;27;97467;-74
2022/04/08 20:03:48;;;;;;;;;;;;;;;23.46;44.12;98629.03;20756052;27;97389;-74
2022/04/08 20:13:49;;;;;;;;;;;;;;;23.42;44.45;98621.66;20750666;27;97020;-74
2022/04/08 20:23:50;;;;;;;;;;;;;;;23.41;44.44;98601.50;20748711;27;98370;-74
2022/04/08 20:33:51;;;;;;;;;;;;;;;23.38;44.32;98605.31;20756761;27;98606;-74
2022/04/08 20:43:51;;;;;;;;;;;;;;;23.34;44.49;98599.56;20749447;27;98423;-74
2022/04/08 20:53:55;;;;;;;;;;;;;;;23.34;44.56;98599.56;20757883;27;97343;-74
2022/04/08 21:03:55;;;;;;;;;;;;;;;23.33;44.55;98597.13;20754239;27;97225;-74
2022/04/08 21:13:56;;;;;;;;;;;;;;;23.28;44.62;98591.53;20746231;27;97383;-74
2022/04/08 21:23:57;;;;;;;;;;;;;;;23.26;44.69;98599.63;20756825;27;97213;-75
2022/04/08 21:33:57;;;;;;;;;;;;;;;23.23;44.57;98596.50;20741055;27;97072;-74
2022/04/08 21:43:58;;;;;;;;;;;;;;;23.21;44.64;98615.19;20767400;27;97429;-74
2022/04/08 21:54:01;;;;;;;;;;;;;;;23.20;44.66;98647.84;20756853;27;99393;-75
2022/04/08 22:04:05;;;;;;;;;;;;;;;23.19;44.67;98699.00;20770012;27;97250;-74
2022/04/08 22:14:05;;;;;;;;;;;;;;;23.15;44.79;98756.59;20771371;27;97531;-74
2022/04/08 22:24:06;;;;;;;;;;;;;;;23.14;44.86;98764.69;20740548;27;97518;-75
2022/04/08 22:34:06;;;;;;;;;;;;;;;23.14;44.63;98762.06;20750835;27;96768;-75
2022/04/08 22:44:07;;;;;;;;;;;;;;;23.12;44.94;98753.47;20748659;27;97252;-75
2022/04/08 22:54:07;;;;;;;;;;;;;;;23.10;44.95;98689.47;20740120;27;97234;-75
2022/04/08 23:04:08;;;;;;;;;;;;;;;23.08;44.97;98654.50;20744750;27;97311;-76
2022/04/08 23:14:09;;;;;;;;;;;;;;;23.02;44.95;98601.41;20745857;27;96871;-76
2022/04/08 23:24:11;;;;;;;;;;;;;;;23.01;45.11;98601.59;20752073;27;98644;-75
2022/04/08 23:34:12;;;;;;;;;;;;;;;23.02;44.84;98595.28;20755818;27;97654;-76
2022/04/08 23:44:12;;;;;;;;;;;;;;;23.00;44.99;98623.69;20748602;27;98196;-76
2022/04/08 23:54:13;;;;;;;;;;;;;;;22.99;45.02;98603.56;20738640;27;96780;-76
